createdAt,value
2018-06-18T00:02:23.501Z,75.20
2018-06-18T00:04:52.637Z,75.10
2018-06-18T00:07:21.830Z,75.20
2018-06-18T00:09:51.033Z,75.80
2018-06-18T00:12:20.196Z,75.70
2018-06-18T00:14:50.393Z,75.70
2018-06-18T00:17:19.569Z,75.70
2018-06-18T00:19:48.737Z,75.90
2018-06-18T00:22:18.688Z,75.70
2018-06-18T00:24:49.364Z,75.90
2018-06-18T00:27:18.519Z,75.80
2018-06-18T00:29:47.633Z,75.70
2018-06-18T00:32:16.756Z,75.50
2018-06-18T00:34:45.963Z,75.80
2018-06-18T00:37:15.129Z,75.50
2018-06-18T00:39:44.235Z,75.70
2018-06-18T00:42:13.389Z,76.20
2018-06-18T00:44:42.489Z,76.30
2018-06-18T00:47:11.720Z,76.10
2018-06-18T00:49:40.884Z,75.90
2018-06-18T00:52:10.002Z,76.10
2018-06-18T00:54:39.150Z,76.00
2018-06-18T00:57:08.337Z,75.80
2018-06-18T00:59:37.474Z,75.90
2018-06-18T01:02:07.017Z,75.90
2018-06-18T01:04:36.161Z,76.10
2018-06-18T01:07:05.447Z,76.00
2018-06-18T01:09:34.612Z,75.90
2018-06-18T01:12:03.787Z,75.90
2018-06-18T01:14:32.922Z,75.60
2018-06-18T01:17:02.034Z,75.70
2018-06-18T01:19:31.169Z,75.60
2018-06-18T01:22:00.288Z,75.50
2018-06-18T01:24:39.087Z,75.60
2018-06-18T01:27:08.255Z,75.80
2018-06-18T01:29:37.378Z,75.90
2018-06-18T01:32:06.539Z,76.30
2018-06-18T01:34:35.677Z,76.10
2018-06-18T01:37:04.827Z,75.90
2018-06-18T01:39:33.969Z,75.90
2018-06-18T01:42:03.159Z,76.10
2018-06-18T01:44:32.314Z,75.70
2018-06-18T01:47:01.475Z,75.70
2018-06-18T01:49:30.602Z,75.60
2018-06-18T01:51:59.734Z,75.60
2018-06-18T01:56:57.492Z,75.50
2018-06-18T01:59:26.661Z,75.40
2018-06-18T02:01:56.979Z,75.60
2018-06-18T02:04:26.722Z,75.80
2018-06-18T02:06:55.921Z,76.40
2018-06-18T02:09:25.050Z,76.10
2018-06-18T02:11:54.157Z,76.40
2018-06-18T02:14:23.295Z,76.50
2018-06-18T02:16:52.410Z,76.70
2018-06-18T02:19:21.595Z,76.40
2018-06-18T02:21:50.757Z,76.30
2018-06-18T02:24:19.958Z,76.20
2018-06-18T02:26:53.324Z,76.70
2018-06-18T02:29:27.745Z,76.90
2018-06-18T02:32:02.168Z,77.00
2018-06-18T02:34:36.656Z,76.70
2018-06-18T02:37:11.114Z,76.70
2018-06-18T02:39:45.469Z,76.50
2018-06-18T02:42:14.618Z,76.30
2018-06-18T02:44:43.777Z,76.20
2018-06-18T02:47:12.925Z,75.90
2018-06-18T02:49:42.080Z,75.70
2018-06-18T02:52:11.225Z,75.70
2018-06-18T02:54:40.407Z,75.90
2018-06-18T02:57:10.850Z,75.80
2018-06-18T02:59:39.948Z,75.70
2018-06-18T03:02:09.034Z,76.20
2018-06-18T03:04:38.218Z,75.90
2018-06-18T03:07:07.368Z,75.70
2018-06-18T03:09:36.759Z,76.10
2018-06-18T03:12:05.967Z,75.80
2018-06-18T03:14:35.115Z,75.80
2018-06-18T03:19:38.331Z,75.70
2018-06-18T03:22:12.798Z,76.00
2018-06-18T03:24:47.395Z,76.00
2018-06-18T03:27:21.678Z,75.90
2018-06-18T03:29:50.839Z,75.70
2018-06-18T03:32:20.034Z,75.80
2018-06-18T03:34:49.161Z,75.70
2018-06-18T03:37:19.580Z,75.80
2018-06-18T03:39:48.789Z,75.40
2018-06-18T03:42:17.957Z,75.50
2018-06-18T03:45:14.765Z,75.40
2018-06-18T03:47:43.915Z,75.40
2018-06-18T03:50:13.046Z,75.50
2018-06-18T03:52:42.172Z,75.50
2018-06-18T03:55:14.971Z,75.00
2018-06-18T03:57:44.063Z,75.30
2018-06-18T04:00:13.202Z,75.30
2018-06-18T04:02:53.208Z,75.50
2018-06-18T04:05:27.740Z,75.90
2018-06-18T04:07:59.661Z,76.20
2018-06-18T04:12:41.610Z,76.10
2018-06-18T04:15:10.784Z,76.40
2018-06-18T04:17:39.964Z,76.20
2018-06-18T04:20:09.156Z,76.20
2018-06-18T04:22:38.325Z,76.30
2018-06-18T04:25:07.508Z,76.00
2018-06-18T04:27:36.728Z,75.70
2018-06-18T04:30:05.946Z,75.40
2018-06-18T04:32:35.094Z,75.30
2018-06-18T04:35:06.790Z,75.10
2018-06-18T04:37:36.035Z,75.00
2018-06-18T04:40:06.252Z,75.10
2018-06-18T04:42:40.818Z,75.00
2018-06-18T04:45:15.172Z,75.00
2018-06-18T04:47:49.760Z,74.50
2018-06-18T04:50:24.282Z,74.20
2018-06-18T04:52:53.435Z,73.90
2018-06-18T04:55:22.573Z,74.70
2018-06-18T04:57:51.735Z,73.40
2018-06-18T05:00:29.249Z,73.20
2018-06-18T05:02:58.478Z,72.10
2018-06-18T05:09:11.930Z,71.30
2018-06-18T05:11:41.062Z,71.20
2018-06-18T05:14:10.165Z,70.70
2018-06-18T05:16:39.337Z,69.80
2018-06-18T05:21:37.254Z,69.50
2018-06-18T05:24:06.781Z,69.30
2018-06-18T05:26:38.497Z,69.00
2018-06-18T05:29:07.678Z,68.60
2018-06-18T05:31:36.844Z,68.30
2018-06-18T05:34:06.717Z,68.50
2018-06-18T05:36:35.878Z,68.20
2018-06-18T05:39:07.909Z,67.60
2018-06-18T05:41:37.157Z,67.70
2018-06-18T05:44:07.142Z,67.00
2018-06-18T05:46:36.379Z,67.00
2018-06-18T05:49:05.665Z,66.30
2018-06-18T05:51:34.802Z,66.60
2018-06-18T05:54:03.990Z,66.20
2018-06-18T05:56:33.160Z,67.20
2018-06-18T05:59:02.289Z,67.50
2018-06-18T06:01:31.743Z,67.50
2018-06-18T06:04:00.894Z,67.70
2018-06-18T06:06:30.017Z,67.00
2018-06-18T06:08:59.203Z,67.60
2018-06-18T06:11:28.321Z,67.20
2018-06-18T06:13:57.434Z,67.40
2018-06-18T06:16:26.563Z,66.70
2018-06-18T06:18:55.992Z,66.60
2018-06-18T06:21:26.492Z,65.30
2018-06-18T06:23:55.608Z,65.60
2018-06-18T06:26:24.800Z,64.90
2018-06-18T06:28:53.939Z,65.00
2018-06-18T06:31:23.063Z,64.30
2018-06-18T06:33:52.212Z,65.10
2018-06-18T06:36:24.338Z,64.20
2018-06-18T06:38:53.504Z,63.90
2018-06-18T06:41:23.386Z,64.00
2018-06-18T06:43:55.784Z,63.00
2018-06-18T06:46:25.004Z,63.00
2018-06-18T06:48:54.200Z,62.80
2018-06-18T06:51:23.358Z,63.40
2018-06-18T06:53:52.497Z,64.50
2018-06-18T06:56:21.739Z,65.00
2018-06-18T06:58:51.329Z,65.40
2018-06-18T07:01:22.162Z,65.30
2018-06-18T07:03:51.338Z,65.10
2018-06-18T07:06:22.308Z,65.10
2018-06-18T07:08:53.387Z,65.50
2018-06-18T07:11:22.527Z,65.30
2018-06-18T07:13:51.789Z,65.70
2018-06-18T07:16:21.028Z,66.40
2018-06-18T07:18:50.199Z,66.00
2018-06-18T07:21:19.359Z,65.90
2018-06-18T07:23:48.495Z,67.10
2018-06-18T07:26:17.666Z,66.50
2018-06-18T07:28:46.792Z,66.00
2018-06-18T07:31:16.083Z,66.00
2018-06-18T07:33:45.305Z,65.40
2018-06-18T07:36:14.502Z,64.70
2018-06-18T07:38:43.754Z,64.20
2018-06-18T07:41:12.863Z,63.80
2018-06-18T07:43:42.170Z,62.40
2018-06-18T07:46:11.291Z,62.20
2018-06-18T07:48:41.271Z,61.90
2018-06-18T07:51:10.459Z,63.10
2018-06-18T07:53:39.717Z,64.10
2018-06-18T07:56:08.963Z,62.80
2018-06-18T07:58:38.271Z,61.70
2018-06-18T08:01:07.465Z,60.00
2018-06-18T08:03:36.950Z,59.20
2018-06-18T08:06:06.726Z,58.30
2018-06-18T08:08:35.916Z,57.10
2018-06-18T08:11:05.111Z,55.90
2018-06-18T08:13:34.250Z,53.90
2018-06-18T08:16:03.422Z,53.50
2018-06-18T08:18:32.628Z,53.20
2018-06-18T08:21:01.798Z,54.20
2018-06-18T08:23:30.938Z,53.40
2018-06-18T08:26:00.216Z,52.10
2018-06-18T08:28:29.381Z,51.80
2018-06-18T08:30:58.644Z,50.30
2018-06-18T08:33:27.750Z,45.20
2018-06-18T08:35:56.920Z,41.20
2018-06-18T08:38:26.013Z,43.20
2018-06-18T08:40:55.198Z,46.20
2018-06-18T08:43:24.386Z,47.80
2018-06-18T08:45:53.513Z,46.70
2018-06-18T08:48:27.970Z,44.50
2018-06-18T08:51:02.429Z,43.10
2018-06-18T08:53:36.906Z,44.20
2018-06-18T08:56:11.401Z,44.50
2018-06-18T08:58:45.815Z,43.50
2018-06-18T09:01:19.513Z,43.90
2018-06-18T09:03:53.537Z,47.20
2018-06-18T09:06:22.650Z,51.10
2018-06-18T09:08:56.459Z,52.10
2018-06-18T09:11:25.940Z,52.20
2018-06-18T09:13:55.188Z,51.70
2018-06-18T09:16:24.322Z,52.40
2018-06-18T09:18:53.784Z,53.40
2018-06-18T09:21:22.915Z,54.60
2018-06-18T09:23:52.134Z,53.90
2018-06-18T09:26:21.310Z,53.70
2018-06-18T09:28:50.456Z,52.80
2018-06-18T09:31:19.652Z,52.80
2018-06-18T09:33:48.840Z,53.20
2018-06-18T09:36:18.016Z,53.40
2018-06-18T09:38:47.166Z,53.00
2018-06-18T09:41:16.260Z,53.00
2018-06-18T09:43:45.413Z,54.10
2018-06-18T09:48:48.917Z,55.10
2018-06-18T09:51:23.285Z,56.00
2018-06-18T09:53:57.897Z,55.70
2018-06-18T09:57:31.911Z,55.20
2018-06-18T10:00:06.277Z,54.50
2018-06-18T10:02:35.665Z,53.80
2018-06-18T10:05:04.888Z,54.70
2018-06-18T10:07:34.071Z,53.40
2018-06-18T10:10:03.233Z,53.40
2018-06-18T10:15:01.106Z,53.00
2018-06-18T10:17:30.261Z,52.70
2018-06-18T10:19:59.403Z,53.10
2018-06-18T10:22:28.594Z,52.90
2018-06-18T10:24:57.718Z,53.30
2018-06-18T10:27:26.874Z,53.00
2018-06-18T10:29:56.017Z,54.10
2018-06-18T10:32:30.441Z,54.90
2018-06-18T10:35:04.926Z,55.40
2018-06-18T10:37:39.469Z,55.20
2018-06-18T10:40:13.955Z,53.00
2018-06-18T10:42:48.563Z,52.80
2018-06-18T10:45:18.355Z,53.20
2018-06-18T10:47:47.550Z,53.90
2018-06-18T10:50:16.700Z,54.70
2018-06-18T10:52:45.841Z,54.80
2018-06-18T10:55:15.001Z,54.90
2018-06-18T10:57:44.558Z,55.00
2018-06-18T11:00:18.417Z,55.80
2018-06-18T11:02:47.549Z,53.90
2018-06-18T11:05:16.721Z,53.60
2018-06-18T11:07:45.906Z,53.00
2018-06-18T11:10:15.202Z,53.40
2018-06-18T11:12:44.360Z,53.20
2018-06-18T11:15:13.538Z,53.00
2018-06-18T11:17:48.032Z,53.00
2018-06-18T11:20:22.635Z,53.30
2018-06-18T11:22:57.040Z,54.40
2018-06-18T11:25:31.575Z,53.50
2018-06-18T11:28:01.384Z,54.20
2018-06-18T11:30:30.754Z,54.20
2018-06-18T11:32:59.942Z,55.00
2018-06-18T11:35:29.203Z,55.20
2018-06-18T11:37:58.422Z,55.60
2018-06-18T11:40:27.622Z,55.70
2018-06-18T11:42:56.743Z,54.70
2018-06-18T11:45:25.896Z,54.10
2018-06-18T11:48:27.497Z,53.40
2018-06-18T11:50:56.642Z,52.20
2018-06-18T11:53:25.767Z,53.00
2018-06-18T11:55:55.016Z,53.80
2018-06-18T11:58:29.531Z,54.10
2018-06-18T12:01:04.008Z,54.00
2018-06-18T12:03:38.475Z,53.80
2018-06-18T12:06:12.971Z,52.60
2018-06-18T12:08:47.347Z,53.10
2018-06-18T12:11:16.498Z,53.10
2018-06-18T12:13:45.721Z,53.00
2018-06-18T12:16:14.920Z,52.70
2018-06-18T12:18:44.079Z,53.70
2018-06-18T12:21:13.207Z,54.40
2018-06-18T12:23:42.360Z,54.40
2018-06-18T12:26:11.504Z,54.40
2018-06-18T12:28:40.645Z,54.70
2018-06-18T12:31:09.799Z,54.80
2018-06-18T12:33:39.057Z,54.80
2018-06-18T12:36:08.810Z,55.00
2018-06-18T12:38:38.007Z,54.90
2018-06-18T12:41:07.631Z,54.10
2018-06-18T12:43:39.122Z,53.70
2018-06-18T12:47:16.155Z,53.80
2018-06-18T12:49:50.654Z,53.90
2018-06-18T12:52:25.010Z,54.70
2018-06-18T12:54:59.570Z,55.40
2018-06-18T12:57:28.705Z,55.90
2018-06-18T12:59:58.898Z,55.40
2018-06-18T13:02:31.785Z,55.00
2018-06-18T13:05:01.531Z,54.60
2018-06-18T13:07:30.678Z,54.20
2018-06-18T13:09:59.876Z,54.00
2018-06-18T13:12:29.038Z,54.20
2018-06-18T13:14:58.245Z,55.00
2018-06-18T13:17:27.416Z,54.60
2018-06-18T13:19:56.584Z,54.50
2018-06-18T13:22:25.733Z,54.70
2018-06-18T13:24:54.890Z,55.00
2018-06-18T13:27:29.473Z,54.50
2018-06-18T13:29:58.573Z,54.70
2018-06-18T13:32:27.831Z,54.90
2018-06-18T13:34:56.942Z,54.50
2018-06-18T13:37:31.370Z,53.60
2018-06-18T13:40:06.034Z,53.70
2018-06-18T13:42:40.634Z,54.40
2018-06-18T13:45:15.071Z,53.40
2018-06-18T13:47:49.682Z,53.20
2018-06-18T13:50:18.794Z,53.50
2018-06-18T13:52:48.022Z,54.00
2018-06-18T13:55:17.074Z,54.10
2018-06-18T13:57:46.661Z,54.20
2018-06-18T14:00:15.763Z,53.90
2018-06-18T14:05:13.728Z,54.20
2018-06-18T14:07:42.954Z,54.30
2018-06-18T14:10:12.149Z,54.10
2018-06-18T14:12:41.293Z,54.50
2018-06-18T14:15:10.454Z,55.10
2018-06-18T14:17:39.669Z,54.60
2018-06-18T14:20:14.071Z,54.90
2018-06-18T14:22:43.206Z,55.20
2018-06-18T14:25:12.444Z,55.60
2018-06-18T14:27:41.622Z,55.50
2018-06-18T14:30:16.015Z,55.70
2018-06-18T14:32:50.505Z,54.90
2018-06-18T14:35:24.858Z,54.00
2018-06-18T14:37:59.230Z,54.10
2018-06-18T14:40:28.376Z,54.60
2018-06-18T14:42:57.570Z,54.70
2018-06-18T14:45:26.707Z,54.80
2018-06-18T14:47:55.879Z,55.10
2018-06-18T14:50:25.077Z,54.50
2018-06-18T14:52:54.194Z,54.80
2018-06-18T14:55:23.412Z,55.20
2018-06-18T14:57:52.510Z,55.60
2018-06-18T15:00:31.066Z,55.70
2018-06-18T15:03:00.289Z,55.50
2018-06-18T15:05:34.540Z,55.50
2018-06-18T15:08:04.196Z,55.50
2018-06-18T15:10:38.893Z,55.40
2018-06-18T15:13:10.170Z,55.90
2018-06-18T15:15:44.687Z,55.90
2018-06-18T15:18:13.835Z,55.60
2018-06-18T15:20:43.158Z,55.70
2018-06-18T15:23:12.154Z,56.10
2018-06-18T15:25:44.354Z,56.10
2018-06-18T15:28:13.518Z,56.10
2018-06-18T15:30:42.671Z,55.90
2018-06-18T15:33:11.929Z,56.00
2018-06-18T15:35:41.055Z,56.50
2018-06-18T15:38:10.296Z,56.50
2018-06-18T15:40:39.406Z,56.70
2018-06-18T15:43:08.580Z,57.10
2018-06-18T15:45:37.724Z,57.10
2018-06-18T15:48:06.887Z,57.90
2018-06-18T15:50:36.138Z,57.10
2018-06-18T15:53:05.368Z,57.30
2018-06-18T15:55:34.590Z,57.50
2018-06-18T15:58:03.776Z,57.60
2018-06-18T16:00:32.958Z,57.80
2018-06-18T16:03:02.103Z,58.10
2018-06-18T16:05:31.324Z,58.20
2018-06-18T16:08:00.547Z,58.40
2018-06-18T16:10:29.772Z,58.60
2018-06-18T16:12:58.937Z,58.40
2018-06-18T16:15:28.069Z,58.60
2018-06-18T16:17:57.265Z,58.50
2018-06-18T16:20:26.437Z,58.90
2018-06-18T16:22:55.656Z,59.30
2018-06-18T16:25:24.837Z,59.00
2018-06-18T16:27:53.978Z,59.20
2018-06-18T16:30:23.254Z,59.10
2018-06-18T16:32:52.385Z,59.00
2018-06-18T16:35:21.892Z,59.00
2018-06-18T16:37:51.031Z,59.40
2018-06-18T16:40:20.210Z,59.30
2018-06-18T16:42:49.364Z,59.60
2018-06-18T16:45:18.622Z,59.40
2018-06-18T16:47:47.758Z,59.30
2018-06-18T16:50:16.915Z,59.60
2018-06-18T16:52:46.316Z,59.60
2018-06-18T16:55:15.585Z,59.90
2018-06-18T16:57:44.742Z,60.40
2018-06-18T17:00:14.068Z,60.60
2018-06-18T17:02:43.255Z,61.70
2018-06-18T17:10:10.073Z,61.40
2018-06-18T17:12:39.246Z,61.60
2018-06-18T17:15:08.464Z,61.80
2018-06-18T17:17:37.648Z,61.70
2018-06-18T17:20:06.860Z,61.50
2018-06-18T17:22:36.033Z,61.50
2018-06-18T17:25:05.617Z,61.60
2018-06-18T17:27:35.226Z,61.80
2018-06-18T17:30:04.645Z,62.10
2018-06-18T17:32:33.853Z,62.40
2018-06-18T17:35:03.478Z,62.40
2018-06-18T17:37:32.722Z,62.60
2018-06-18T17:40:02.040Z,62.80
2018-06-18T17:42:31.453Z,62.70
2018-06-18T17:45:00.641Z,62.80
2018-06-18T17:47:29.834Z,62.90
2018-06-18T17:49:59.234Z,63.00
2018-06-18T17:52:28.488Z,63.10
2018-06-18T17:54:57.992Z,63.20
2018-06-18T17:57:27.565Z,63.30
2018-06-18T17:59:56.965Z,63.60
2018-06-18T18:02:27.072Z,63.80
2018-06-18T18:04:57.826Z,64.20
2018-06-18T18:07:28.852Z,64.40
2018-06-18T18:10:05.418Z,64.80
2018-06-18T18:12:34.620Z,64.90
2018-06-18T18:15:03.930Z,65.40
2018-06-18T18:17:35.136Z,65.60
2018-06-18T18:22:35.319Z,66.00
2018-06-18T18:25:04.712Z,66.20
2018-06-18T18:27:33.871Z,66.40
2018-06-18T18:30:03.602Z,66.60
2018-06-18T18:32:33.239Z,66.70
2018-06-18T18:35:03.379Z,67.20
2018-06-18T18:37:33.687Z,67.10
2018-06-18T18:40:03.070Z,67.00
2018-06-18T18:45:01.527Z,67.60
2018-06-18T18:47:31.058Z,67.30
2018-06-18T18:50:00.585Z,67.70
2018-06-18T18:52:31.347Z,68.00
2018-06-18T18:55:38.259Z,68.30
2018-06-18T18:58:20.630Z,68.40
2018-06-18T19:00:50.401Z,68.70
2018-06-18T19:03:22.225Z,68.80
2018-06-18T19:05:52.372Z,68.90
2018-06-18T19:08:31.006Z,69.20
2018-06-18T19:11:02.044Z,69.40
2018-06-18T19:18:32.517Z,70.00
2018-06-18T19:21:06.731Z,70.20
2018-06-18T19:23:36.071Z,70.40
2018-06-18T19:26:05.517Z,70.70
2018-06-18T19:28:35.712Z,70.70
2018-06-18T19:31:15.056Z,70.90
2018-06-18T19:34:47.564Z,71.20
2018-06-18T19:37:17.090Z,71.20
2018-06-18T19:39:47.285Z,71.50
2018-06-18T19:42:16.497Z,71.70
2018-06-18T19:44:46.559Z,71.80
2018-06-18T19:47:31.916Z,71.80
2018-06-18T19:50:01.306Z,71.90
2018-06-18T19:52:30.641Z,72.00
2018-06-18T19:55:03.591Z,72.00
2018-06-18T19:57:32.808Z,72.00
2018-06-18T20:00:01.984Z,72.00
2018-06-18T20:02:31.179Z,71.90
2018-06-18T20:05:04.553Z,72.00
2018-06-18T20:07:34.159Z,72.10
2018-06-18T20:10:03.730Z,72.70
2018-06-18T20:12:33.001Z,72.20
2018-06-18T20:15:02.860Z,72.00
2018-06-18T20:17:32.055Z,72.00
2018-06-18T20:20:01.246Z,71.90
2018-06-18T20:22:30.816Z,72.00
2018-06-18T20:25:00.337Z,71.90
2018-06-18T20:27:29.638Z,71.60
2018-06-18T20:29:58.847Z,71.80
2018-06-18T20:32:29.269Z,71.70
2018-06-18T20:34:59.027Z,72.00
2018-06-18T20:37:28.301Z,72.00
2018-06-18T20:39:57.532Z,72.20
2018-06-18T20:42:26.739Z,72.30
2018-06-18T20:47:24.697Z,72.90
2018-06-18T20:49:53.891Z,73.20
2018-06-18T20:52:23.082Z,73.10
2018-06-18T20:54:52.298Z,73.10
2018-06-18T20:57:21.478Z,73.90
2018-06-18T20:59:50.648Z,74.60
2018-06-18T21:02:19.910Z,74.50
2018-06-18T21:04:49.082Z,75.20
2018-06-18T21:07:18.280Z,75.40
2018-06-18T21:09:47.494Z,75.40
2018-06-18T21:12:16.742Z,75.10
2018-06-18T21:14:45.958Z,75.30
2018-06-18T21:17:15.209Z,75.50
2018-06-18T21:19:45.448Z,75.70
2018-06-18T21:22:14.663Z,76.00
2018-06-18T21:24:43.927Z,76.00
2018-06-18T21:29:41.922Z,76.10
2018-06-18T21:32:11.446Z,76.20
2018-06-18T21:34:40.681Z,76.30
2018-06-18T21:39:38.615Z,76.50
2018-06-18T21:42:07.889Z,76.70
2018-06-18T21:44:45.147Z,76.80
2018-06-18T21:47:14.334Z,77.10
2018-06-18T21:49:43.538Z,76.90
2018-06-18T21:52:12.725Z,77.40
2018-06-18T21:54:42.009Z,77.60
2018-06-18T21:57:11.185Z,78.10
2018-06-18T21:59:40.353Z,78.50
2018-06-18T22:02:09.566Z,78.80
2018-06-18T22:04:38.701Z,79.10
2018-06-18T22:07:14.498Z,79.30
2018-06-18T22:12:14.259Z,80.00
2018-06-18T22:14:45.249Z,80.10
2018-06-18T22:17:14.447Z,80.10
2018-06-18T22:19:43.600Z,80.30
2018-06-18T22:22:12.746Z,80.50
2018-06-18T22:24:41.957Z,80.70
2018-06-18T22:27:11.097Z,80.70
2018-06-18T22:29:40.252Z,80.50
2018-06-18T22:32:09.398Z,80.50
2018-06-18T22:34:38.532Z,80.30
2018-06-18T22:37:07.722Z,80.60
2018-06-18T22:39:36.886Z,80.70
2018-06-18T22:42:06.057Z,81.00
2018-06-18T22:44:35.224Z,81.30
2018-06-18T22:47:04.423Z,81.00
2018-06-18T22:49:33.613Z,81.00
2018-06-18T22:52:02.742Z,81.10
2018-06-18T22:54:31.934Z,81.20
2018-06-18T22:57:01.117Z,81.20
2018-06-18T22:59:30.260Z,81.10
2018-06-18T23:02:00.341Z,81.40
2018-06-18T23:04:29.538Z,81.70
2018-06-18T23:06:58.740Z,81.70
2018-06-18T23:11:56.544Z,82.70
2018-06-18T23:14:26.541Z,82.80
2018-06-18T23:16:55.783Z,82.80
2018-06-18T23:19:24.915Z,83.00
2018-06-18T23:21:54.043Z,83.40
2018-06-18T23:24:23.190Z,84.60
2018-06-18T23:26:52.350Z,83.70
2018-06-18T23:29:21.888Z,84.10
2018-06-18T23:31:51.071Z,84.50
2018-06-18T23:34:20.198Z,84.30
2018-06-18T23:36:49.290Z,84.30
2018-06-18T23:39:18.422Z,84.40
2018-06-18T23:41:51.144Z,84.30
2018-06-18T23:44:20.326Z,84.20
2018-06-18T23:46:49.497Z,84.00
2018-06-18T23:49:18.664Z,83.60
2018-06-18T23:51:47.833Z,84.20
2018-06-18T23:54:16.986Z,84.50
2018-06-18T23:56:46.151Z,84.10
2018-06-18T23:59:15.258Z,84.00
